createdAt,value
2022-12-11T00:00:25.815Z,24.13
2022-12-11T00:02:53.202Z,22.77
2022-12-11T00:05:19.900Z,23.00
2022-12-11T00:07:46.625Z,19.60
2022-12-11T00:10:13.283Z,18.00
2022-12-11T00:12:39.931Z,19.20
2022-12-11T00:15:07.220Z,16.37
2022-12-11T00:17:34.062Z,17.07
2022-12-11T00:20:00.664Z,17.37
2022-12-11T00:22:27.270Z,18.83
2022-12-11T00:24:53.947Z,17.77
2022-12-11T00:27:20.518Z,18.03
2022-12-11T00:29:47.061Z,17.37
2022-12-11T00:32:13.656Z,16.77
2022-12-11T00:34:40.382Z,15.53
2022-12-11T00:37:07.080Z,16.13
2022-12-11T00:39:33.751Z,17.13
2022-12-11T00:42:00.723Z,19.50
2022-12-11T00:44:27.273Z,15.57
2022-12-11T00:46:53.826Z,11.97
2022-12-11T00:49:20.544Z,15.13
2022-12-11T00:51:47.109Z,14.57
2022-12-11T00:54:14.627Z,14.17
2022-12-11T00:56:41.210Z,12.13
2022-12-11T00:59:07.982Z,12.90
2022-12-11T01:01:35.015Z,12.17
2022-12-11T01:04:01.695Z,12.23
2022-12-11T01:06:28.720Z,11.13
2022-12-11T01:09:14.965Z,13.43
2022-12-11T01:11:42.929Z,12.37
2022-12-11T01:14:10.882Z,15.17
2022-12-11T01:16:37.691Z,11.53
2022-12-11T01:19:04.455Z,11.03
2022-12-11T01:21:31.202Z,12.27
2022-12-11T01:23:57.875Z,14.17
2022-12-11T01:26:24.539Z,11.20
2022-12-11T01:28:51.874Z,11.47
2022-12-11T01:31:20.029Z,9.27
2022-12-11T01:33:46.668Z,10.73
2022-12-11T01:36:19.497Z,13.53
2022-12-11T01:38:47.954Z,12.40
2022-12-11T01:41:15.536Z,13.77
2022-12-11T01:43:59.917Z,12.00
2022-12-11T01:46:27.759Z,12.50
2022-12-11T01:48:55.966Z,11.40
2022-12-11T01:51:24.032Z,13.33
2022-12-11T01:54:00.855Z,10.53
2022-12-11T01:56:31.725Z,13.50
2022-12-11T01:59:06.831Z,13.40
2022-12-11T02:02:09.164Z,11.17
2022-12-11T02:04:38.586Z,14.77
2022-12-11T02:07:05.847Z,13.17
2022-12-11T02:09:35.107Z,10.80
2022-12-11T02:12:07.704Z,10.73
2022-12-11T02:14:49.484Z,11.03
2022-12-11T02:17:26.144Z,13.07
2022-12-11T02:20:15.013Z,11.53
2022-12-11T02:23:12.193Z,8.43
2022-12-11T02:25:57.838Z,11.23
2022-12-11T02:28:27.356Z,9.77
2022-12-11T02:31:10.492Z,11.63
2022-12-11T02:33:45.749Z,13.40
2022-12-11T02:36:18.279Z,12.13
2022-12-11T02:38:50.751Z,8.27
2022-12-11T02:41:19.916Z,8.93
2022-12-11T02:43:48.215Z,10.77
2022-12-11T02:46:17.853Z,11.50
2022-12-11T02:48:47.379Z,11.23
2022-12-11T02:51:16.496Z,11.13
2022-12-11T02:53:44.758Z,10.50
2022-12-11T02:56:16.667Z,9.20
2022-12-11T02:58:50.685Z,11.27
2022-12-11T03:01:20.620Z,8.83
2022-12-11T03:03:47.796Z,8.40
2022-12-11T03:06:18.388Z,11.20
2022-12-11T03:11:12.521Z,12.60
2022-12-11T03:13:42.592Z,9.13
2022-12-11T03:16:17.962Z,13.25
2022-12-11T03:18:53.736Z,11.83
2022-12-11T03:21:30.266Z,11.87
2022-12-11T03:24:14.703Z,11.70
2022-12-11T03:26:54.469Z,13.47
2022-12-11T03:29:31.811Z,11.37
2022-12-11T03:32:04.614Z,13.23
2022-12-11T03:34:36.851Z,9.93
2022-12-11T03:37:05.653Z,11.47
2022-12-11T03:39:37.822Z,11.80
2022-12-11T03:42:09.691Z,10.37
2022-12-11T03:44:36.923Z,10.13
2022-12-11T03:47:07.371Z,12.37
2022-12-11T03:52:06.287Z,9.65
2022-12-11T03:54:34.963Z,12.53
2022-12-11T03:57:04.338Z,11.77
2022-12-11T03:59:31.490Z,13.17
2022-12-11T04:01:58.395Z,12.50
2022-12-11T04:04:25.499Z,11.80
2022-12-11T04:06:52.221Z,13.07
2022-12-11T04:09:18.887Z,11.10
2022-12-11T04:11:45.639Z,13.77
2022-12-11T04:14:32.998Z,12.87
2022-12-11T04:17:00.810Z,11.47
2022-12-11T04:19:46.585Z,15.83
2022-12-11T04:22:34.536Z,15.30
2022-12-11T04:25:02.425Z,14.27
2022-12-11T04:27:49.182Z,13.77
2022-12-11T04:30:23.444Z,12.17
2022-12-11T04:32:50.544Z,13.87
2022-12-11T04:35:17.755Z,13.63
2022-12-11T04:37:44.518Z,11.57
2022-12-11T04:40:14.222Z,11.93
2022-12-11T04:42:41.380Z,13.52
2022-12-11T04:45:09.725Z,13.77
2022-12-11T04:47:38.869Z,12.90
2022-12-11T04:50:09.150Z,13.67
2022-12-11T04:52:35.826Z,12.50
2022-12-11T04:55:04.993Z,13.60
2022-12-11T04:57:31.642Z,11.47
2022-12-11T04:59:58.216Z,12.73
2022-12-11T05:02:24.891Z,12.87
2022-12-11T05:04:51.479Z,13.60
2022-12-11T05:07:18.224Z,13.77
2022-12-11T05:09:44.775Z,13.97
2022-12-11T05:12:11.408Z,13.00
2022-12-11T05:14:38.088Z,12.17
2022-12-11T05:17:04.630Z,12.27
2022-12-11T05:19:31.366Z,14.47
2022-12-11T05:21:57.905Z,14.93
2022-12-11T05:24:24.486Z,13.07
2022-12-11T05:26:51.158Z,11.57
2022-12-11T05:29:17.696Z,13.07
2022-12-11T05:31:44.337Z,12.77
2022-12-11T05:34:11.142Z,15.50
2022-12-11T05:36:37.768Z,13.33
2022-12-11T05:39:05.001Z,15.23
2022-12-11T05:41:32.896Z,12.23
2022-12-11T05:44:00.217Z,13.90
2022-12-11T05:46:29.992Z,11.97
2022-12-11T05:49:01.984Z,16.55
2022-12-11T05:51:29.796Z,15.33
2022-12-11T05:53:57.804Z,23.90
2022-12-11T05:56:30.586Z,16.73
2022-12-11T05:58:58.250Z,13.53
2022-12-11T06:01:27.952Z,13.73
2022-12-11T06:03:55.954Z,14.77
2022-12-11T06:06:24.050Z,12.90
2022-12-11T06:08:51.916Z,16.03
2022-12-11T06:11:23.790Z,15.63
2022-12-11T06:13:51.894Z,14.03
2022-12-11T06:16:19.434Z,14.37
2022-12-11T06:18:46.384Z,13.03
2022-12-11T06:21:25.982Z,17.40
2022-12-11T06:23:54.816Z,14.53
2022-12-11T06:26:22.068Z,16.70
2022-12-11T06:28:49.529Z,15.03
2022-12-11T06:31:17.847Z,18.17
2022-12-11T06:33:45.040Z,15.50
2022-12-11T06:36:17.616Z,15.27
2022-12-11T06:38:44.929Z,13.27
2022-12-11T06:41:12.195Z,17.67
2022-12-11T06:43:40.389Z,14.33
2022-12-11T06:46:09.974Z,14.93
2022-12-11T06:48:38.081Z,15.32
2022-12-11T06:51:09.841Z,13.33
2022-12-11T06:53:36.891Z,14.30
2022-12-11T06:56:05.573Z,16.13
2022-12-11T06:58:34.582Z,15.33
2022-12-11T07:01:03.268Z,14.57
2022-12-11T07:03:29.975Z,14.03
2022-12-11T07:06:02.930Z,13.57
2022-12-11T07:08:32.086Z,21.40
2022-12-11T07:11:12.704Z,15.57
2022-12-11T07:16:10.952Z,20.00
2022-12-11T07:18:39.362Z,15.57
2022-12-11T07:21:07.617Z,14.97
2022-12-11T07:23:35.291Z,14.33
2022-12-11T07:26:09.159Z,15.37
2022-12-11T07:28:36.264Z,12.83
2022-12-11T07:31:11.224Z,13.17
2022-12-11T07:33:37.846Z,14.23
2022-12-11T07:36:06.991Z,21.27
2022-12-11T07:38:34.143Z,16.50
2022-12-11T07:41:02.206Z,14.73
2022-12-11T07:43:28.944Z,19.03
2022-12-11T07:45:55.754Z,15.53
2022-12-11T07:48:22.381Z,16.13
2022-12-11T07:50:49.059Z,17.47
2022-12-11T07:53:15.619Z,19.27
2022-12-11T07:55:42.279Z,22.67
2022-12-11T07:58:08.885Z,15.50
2022-12-11T08:00:35.475Z,32.23
2022-12-11T08:03:02.120Z,15.43
2022-12-11T08:05:29.036Z,13.43
2022-12-11T08:07:55.833Z,11.77
2022-12-11T08:10:23.050Z,13.17
2022-12-11T08:12:49.607Z,14.40
2022-12-11T08:15:16.159Z,13.10
2022-12-11T08:17:42.701Z,14.37
2022-12-11T08:20:09.891Z,14.37
2022-12-11T08:22:36.480Z,15.90
2022-12-11T08:25:03.299Z,15.40
2022-12-11T08:27:29.991Z,14.40
2022-12-11T08:29:56.574Z,21.80
2022-12-11T08:32:23.151Z,17.53
2022-12-11T08:34:51.734Z,22.57
2022-12-11T08:37:18.400Z,20.33
2022-12-11T08:39:47.124Z,27.90
2022-12-11T08:42:13.758Z,18.20
2022-12-11T08:44:40.382Z,16.13
2022-12-11T08:47:09.950Z,28.77
2022-12-11T08:49:36.936Z,18.42
2022-12-11T08:52:06.877Z,18.77
2022-12-11T08:54:33.603Z,21.73
2022-12-11T08:57:00.311Z,34.67
2022-12-11T08:59:26.851Z,30.00
2022-12-11T09:01:55.538Z,35.07
2022-12-11T09:04:23.248Z,28.77
2022-12-11T09:06:50.218Z,27.87
2022-12-11T09:09:17.109Z,18.43
2022-12-11T09:11:43.925Z,22.20
2022-12-11T09:14:10.613Z,24.67
2022-12-11T09:16:40.735Z,19.70
2022-12-11T09:19:11.163Z,19.13
2022-12-11T09:21:37.819Z,21.45
2022-12-11T09:24:04.822Z,19.53
2022-12-11T09:26:32.994Z,25.13
2022-12-11T09:28:59.674Z,20.57
2022-12-11T09:31:29.331Z,22.60
2022-12-11T09:33:58.422Z,17.42
2022-12-11T09:36:25.929Z,26.97
2022-12-11T09:38:52.639Z,25.33
2022-12-11T09:41:22.155Z,16.20
2022-12-11T09:43:51.635Z,19.48
2022-12-11T09:46:20.755Z,21.27
2022-12-11T09:48:50.157Z,20.63
2022-12-11T09:51:39.896Z,19.27
2022-12-11T09:54:06.740Z,18.98
2022-12-11T09:56:42.543Z,21.30
2022-12-11T09:59:35.039Z,21.80
2022-12-11T10:02:26.327Z,26.37
2022-12-11T10:04:59.250Z,37.33
2022-12-11T10:07:57.104Z,24.13
2022-12-11T10:10:51.711Z,27.63
2022-12-11T10:13:33.388Z,22.10
2022-12-11T10:16:23.009Z,23.30
2022-12-11T10:18:50.417Z,24.00
2022-12-11T10:21:18.750Z,23.57
2022-12-11T10:23:56.744Z,24.23
2022-12-11T10:26:23.912Z,21.90
2022-12-11T10:28:50.796Z,22.93
2022-12-11T10:31:29.314Z,20.77
2022-12-11T10:34:03.200Z,29.67
2022-12-11T10:36:34.343Z,27.43
2022-12-11T10:39:01.723Z,24.10
2022-12-11T10:41:39.847Z,21.73
2022-12-11T10:44:20.385Z,24.67
2022-12-11T10:49:24.261Z,17.57
2022-12-11T10:51:52.632Z,19.13
2022-12-11T10:54:35.727Z,17.60
2022-12-11T10:57:03.892Z,17.53
2022-12-11T10:59:44.139Z,18.43
2022-12-11T11:02:26.064Z,16.35
2022-12-11T11:04:55.274Z,18.70
2022-12-11T11:07:25.698Z,17.33
2022-12-11T11:12:30.665Z,14.50
2022-12-11T11:15:07.090Z,13.10
2022-12-11T11:17:51.291Z,13.90
2022-12-11T11:20:25.370Z,12.47
2022-12-11T11:25:23.445Z,12.83
2022-12-11T11:27:59.387Z,15.63
2022-12-11T11:30:25.895Z,17.93
2022-12-11T11:32:56.735Z,17.07
2022-12-11T11:35:27.141Z,13.80
2022-12-11T11:38:00.694Z,15.10
2022-12-11T11:40:31.081Z,16.07
2022-12-11T11:43:43.833Z,16.58
2022-12-11T11:46:14.491Z,16.83
2022-12-11T11:49:07.603Z,21.20
2022-12-11T11:51:38.926Z,19.37
2022-12-11T11:54:30.412Z,19.30
2022-12-11T11:57:00.827Z,18.40
2022-12-11T12:02:13.929Z,19.03
2022-12-11T12:04:42.239Z,20.98
2022-12-11T12:07:31.100Z,19.93
2022-12-11T12:10:36.908Z,18.43
2022-12-11T12:13:30.203Z,18.63
2022-12-11T12:15:59.634Z,19.57
2022-12-11T12:18:58.104Z,19.70
2022-12-11T12:21:35.122Z,17.80
2022-12-11T12:24:23.560Z,19.67
2022-12-11T12:26:57.430Z,22.93
2022-12-11T12:29:44.302Z,21.63
2022-12-11T12:32:29.093Z,21.10
2022-12-11T12:34:59.628Z,24.77
2022-12-11T12:40:31.958Z,24.17
2022-12-11T12:43:17.200Z,22.27
2022-12-11T12:45:59.247Z,23.13
2022-12-11T12:48:28.211Z,20.77
2022-12-11T12:50:56.954Z,21.13
2022-12-11T12:53:28.755Z,19.23
2022-12-11T12:55:59.067Z,23.00
2022-12-11T12:58:25.609Z,19.08
2022-12-11T13:00:52.631Z,19.60
2022-12-11T13:03:35.819Z,18.03
2022-12-11T13:06:07.816Z,21.53
2022-12-11T13:08:42.754Z,19.13
2022-12-11T13:11:12.487Z,22.10
2022-12-11T13:13:42.247Z,19.58
2022-12-11T13:16:17.997Z,17.92
2022-12-11T13:18:49.887Z,17.47
2022-12-11T13:21:28.651Z,20.60
2022-12-11T13:24:12.704Z,18.53
2022-12-11T13:26:40.107Z,20.00
2022-12-11T13:29:06.978Z,21.60
2022-12-11T13:31:36.495Z,24.03
2022-12-11T13:34:20.718Z,19.43
2022-12-11T13:36:52.630Z,20.37
2022-12-11T13:39:27.631Z,22.97
2022-12-11T13:41:59.592Z,23.17
2022-12-11T13:44:41.784Z,21.33
2022-12-11T13:47:14.523Z,24.30
2022-12-11T13:49:44.472Z,26.13
2022-12-11T13:52:18.881Z,22.20
2022-12-11T13:54:51.599Z,23.23
2022-12-11T13:57:21.542Z,24.03
2022-12-11T13:59:53.026Z,19.45
2022-12-11T14:02:26.602Z,24.03
2022-12-11T14:04:58.227Z,26.03
2022-12-11T14:07:32.321Z,22.33
2022-12-11T14:10:33.523Z,22.07
2022-12-11T14:13:04.820Z,24.27
2022-12-11T14:15:37.900Z,23.73
2022-12-11T14:18:05.571Z,20.97
2022-12-11T14:20:34.119Z,20.50
2022-12-11T14:23:25.967Z,25.13
2022-12-11T14:25:58.791Z,16.87
2022-12-11T14:28:27.907Z,20.77
2022-12-11T14:30:59.759Z,20.37
2022-12-11T14:33:32.773Z,18.17
2022-12-11T14:36:01.354Z,17.10
2022-12-11T14:38:43.041Z,21.30
2022-12-11T14:41:23.741Z,23.90
2022-12-11T14:46:32.799Z,23.30
2022-12-11T14:49:03.756Z,19.50
2022-12-11T14:51:38.721Z,25.87
2022-12-11T14:54:06.716Z,20.97
2022-12-11T14:56:34.146Z,22.63
2022-12-11T14:59:06.868Z,22.93
2022-12-11T15:01:36.648Z,23.70
2022-12-11T15:04:22.724Z,23.02
2022-12-11T15:06:51.856Z,24.30
2022-12-11T15:09:27.802Z,27.83
2022-12-11T15:11:59.962Z,30.67
2022-12-11T15:14:27.355Z,27.27
2022-12-11T15:16:57.328Z,27.03
2022-12-11T15:19:32.080Z,34.33
2022-12-11T15:22:04.691Z,31.90
2022-12-11T15:24:42.958Z,27.27
2022-12-11T15:27:33.537Z,26.40
2022-12-11T15:30:00.250Z,29.45
2022-12-11T15:32:33.703Z,28.50
2022-12-11T15:37:33.094Z,25.63
2022-12-11T15:40:02.186Z,26.40
2022-12-11T15:42:36.079Z,23.00
2022-12-11T15:45:06.115Z,33.33
2022-12-11T15:47:32.998Z,26.77
2022-12-11T15:50:15.612Z,30.07
2022-12-11T15:52:42.649Z,24.50
2022-12-11T15:55:09.897Z,26.03
2022-12-11T15:57:37.245Z,29.07
2022-12-11T16:00:06.656Z,27.00
2022-12-11T16:02:33.945Z,28.70
2022-12-11T16:05:00.605Z,33.03
2022-12-11T16:07:27.221Z,32.03
2022-12-11T16:09:53.948Z,38.87
2022-12-11T16:12:20.780Z,33.97
2022-12-11T16:14:47.458Z,33.03
2022-12-11T16:17:15.225Z,29.90
2022-12-11T16:19:43.446Z,30.27
2022-12-11T16:22:12.320Z,32.87
2022-12-11T16:24:39.907Z,32.60
2022-12-11T16:27:07.910Z,33.67
2022-12-11T16:29:36.734Z,34.70
2022-12-11T16:32:04.584Z,39.63
2022-12-11T16:34:31.108Z,46.07
2022-12-11T16:36:58.803Z,54.33
2022-12-11T16:39:26.109Z,51.87
2022-12-11T16:41:52.790Z,44.20
2022-12-11T16:44:21.168Z,37.67
2022-12-11T16:46:48.305Z,38.80
2022-12-11T16:49:15.946Z,46.37
2022-12-11T16:51:43.006Z,41.80
2022-12-11T16:54:11.748Z,39.57
2022-12-11T16:56:39.027Z,47.47
2022-12-11T16:59:06.366Z,41.70
2022-12-11T17:01:33.825Z,34.73
2022-12-11T17:04:00.656Z,36.27
2022-12-11T17:06:27.640Z,43.80
2022-12-11T17:08:54.286Z,50.37
2022-12-11T17:11:24.935Z,48.10
2022-12-11T17:13:55.835Z,56.17
2022-12-11T17:16:24.927Z,67.90
2022-12-11T17:18:52.465Z,79.90
2022-12-11T17:21:20.863Z,83.13
2022-12-11T17:23:47.625Z,79.30
2022-12-11T17:26:16.843Z,84.93
2022-12-11T17:28:43.658Z,103.37
2022-12-11T17:31:16.016Z,92.17
2022-12-11T17:33:46.595Z,77.33
2022-12-11T17:36:20.722Z,64.50
2022-12-11T17:38:48.425Z,49.03
2022-12-11T17:41:20.512Z,51.60
2022-12-11T17:43:53.079Z,37.27
2022-12-11T17:46:21.054Z,38.83
2022-12-11T17:48:48.743Z,38.37
2022-12-11T17:51:21.241Z,42.07
2022-12-11T17:53:53.661Z,42.20
2022-12-11T17:56:20.617Z,31.37
2022-12-11T17:58:47.290Z,33.10
2022-12-11T18:01:14.042Z,35.40
2022-12-11T18:03:41.645Z,38.00
2022-12-11T18:06:12.767Z,39.60
2022-12-11T18:08:39.880Z,41.87
2022-12-11T18:11:08.757Z,45.10
2022-12-11T18:13:43.371Z,42.97
2022-12-11T18:16:17.466Z,52.40
2022-12-11T18:18:45.900Z,51.53
2022-12-11T18:21:18.404Z,47.07
2022-12-11T18:23:45.620Z,45.67
2022-12-11T18:26:16.200Z,52.23
2022-12-11T18:28:43.761Z,55.45
2022-12-11T18:31:11.422Z,53.97
2022-12-11T18:33:39.442Z,50.13
2022-12-11T18:36:06.625Z,54.77
2022-12-11T18:38:34.782Z,50.20
2022-12-11T18:41:07.934Z,61.23
2022-12-11T18:46:52.933Z,54.33
2022-12-11T18:49:22.095Z,49.20
2022-12-11T18:51:48.827Z,48.63
2022-12-11T18:54:25.883Z,43.63
2022-12-11T18:56:53.517Z,42.10
2022-12-11T18:59:26.706Z,40.37
2022-12-11T19:01:53.556Z,38.60
2022-12-11T19:04:20.497Z,49.90
2022-12-11T19:06:48.223Z,50.47
2022-12-11T19:09:15.147Z,55.03
2022-12-11T19:11:48.279Z,39.73
2022-12-11T19:14:22.143Z,39.80
2022-12-11T19:16:50.917Z,39.43
2022-12-11T19:19:20.856Z,40.60
2022-12-11T19:21:49.145Z,41.75
2022-12-11T19:24:23.524Z,37.87
2022-12-11T19:26:51.651Z,39.87
2022-12-11T19:29:25.493Z,36.83
2022-12-11T19:31:58.190Z,34.80
2022-12-11T19:34:25.443Z,36.63
2022-12-11T19:36:53.797Z,32.50
2022-12-11T19:39:20.547Z,33.10
2022-12-11T19:41:49.061Z,28.80
2022-12-11T19:44:16.830Z,33.07
2022-12-11T19:46:43.507Z,34.97
2022-12-11T19:49:11.647Z,36.10
2022-12-11T19:51:40.370Z,36.70
2022-12-11T19:54:10.192Z,37.03
2022-12-11T19:56:41.373Z,35.13
2022-12-11T19:59:11.949Z,44.33
2022-12-11T20:01:38.886Z,39.28
2022-12-11T20:04:10.823Z,33.87
2022-12-11T20:06:43.001Z,36.60
2022-12-11T20:09:12.192Z,37.93
2022-12-11T20:11:41.295Z,34.40
2022-12-11T20:14:09.689Z,36.30
2022-12-11T20:17:09.110Z,34.80
2022-12-11T20:19:29.993Z,36.37
2022-12-11T20:21:59.599Z,37.65
2022-12-11T20:24:26.567Z,38.80
2022-12-11T20:27:02.495Z,40.00
2022-12-11T20:29:32.343Z,36.87
2022-12-11T20:32:01.468Z,40.45
2022-12-11T20:34:28.190Z,34.20
2022-12-11T20:36:56.924Z,31.53
2022-12-11T20:39:41.660Z,32.70
2022-12-11T20:42:09.799Z,31.53
2022-12-11T20:44:44.166Z,33.67
2022-12-11T20:47:15.772Z,33.13
2022-12-11T20:49:42.475Z,35.87
2022-12-11T20:52:10.064Z,41.60
2022-12-11T20:54:41.903Z,36.93
2022-12-11T20:57:09.107Z,41.23
2022-12-11T20:59:36.914Z,52.63
2022-12-11T21:02:05.687Z,51.20
2022-12-11T21:04:38.043Z,44.77
2022-12-11T21:07:05.808Z,47.70
2022-12-11T21:09:32.362Z,42.63
2022-12-11T21:12:01.254Z,46.90
2022-12-11T21:14:28.685Z,49.23
2022-12-11T21:16:55.845Z,52.60
2022-12-11T21:19:25.903Z,51.10
2022-12-11T21:21:52.958Z,39.38
2022-12-11T21:24:26.649Z,68.97
2022-12-11T21:26:56.287Z,74.60
2022-12-11T21:29:26.873Z,73.40
2022-12-11T21:32:02.394Z,64.45
2022-12-11T21:34:33.691Z,74.03
2022-12-11T21:37:01.412Z,79.03
2022-12-11T21:39:28.851Z,77.60
2022-12-11T21:41:55.733Z,67.60
2022-12-11T21:47:09.060Z,81.80
2022-12-11T21:49:35.678Z,76.53
2022-12-11T21:52:03.273Z,74.73
2022-12-11T21:54:30.033Z,84.10
2022-12-11T21:56:57.031Z,87.37
2022-12-11T21:59:23.558Z,85.50
2022-12-11T22:01:50.550Z,83.03
2022-12-11T22:04:17.606Z,81.80
2022-12-11T22:06:47.056Z,53.10
2022-12-11T22:09:15.844Z,59.80
2022-12-11T22:11:42.969Z,55.50
2022-12-11T22:14:12.789Z,50.23
2022-12-11T22:16:42.028Z,43.50
2022-12-11T22:19:09.653Z,50.30
2022-12-11T22:21:36.628Z,55.83
2022-12-11T22:24:09.061Z,48.67
2022-12-11T22:26:35.868Z,40.17
2022-12-11T22:29:02.521Z,45.30
2022-12-11T22:32:08.152Z,43.37
2022-12-11T22:34:40.665Z,50.80
2022-12-11T22:38:56.004Z,47.80
2022-12-11T22:43:20.616Z,66.20
2022-12-11T22:45:50.426Z,60.20
2022-12-11T22:48:18.463Z,48.92
2022-12-11T22:50:45.072Z,60.40
2022-12-11T22:53:11.794Z,54.70
2022-12-11T22:55:40.050Z,58.00
2022-12-11T22:58:07.108Z,55.90
2022-12-11T23:00:34.165Z,63.77
2022-12-11T23:03:02.184Z,59.03
2022-12-11T23:05:29.326Z,53.13
2022-12-11T23:07:56.034Z,52.63
2022-12-11T23:10:22.839Z,54.43
2022-12-11T23:12:50.730Z,45.10
2022-12-11T23:15:18.773Z,51.43
2022-12-11T23:17:45.641Z,47.20
2022-12-11T23:20:12.591Z,55.57
2022-12-11T23:22:39.199Z,47.30
2022-12-11T23:25:06.263Z,47.60
2022-12-11T23:27:33.227Z,50.47
2022-12-11T23:29:59.930Z,51.47
2022-12-11T23:32:26.618Z,48.70
2022-12-11T23:34:54.221Z,44.67
2022-12-11T23:37:21.208Z,41.43
2022-12-11T23:39:47.937Z,42.87
2022-12-11T23:42:15.696Z,45.50
2022-12-11T23:44:43.467Z,43.63
2022-12-11T23:47:10.172Z,42.83
2022-12-11T23:49:36.794Z,40.57
2022-12-11T23:52:03.417Z,44.03
2022-12-11T23:54:30.033Z,38.73
2022-12-11T23:56:56.654Z,40.93
2022-12-11T23:59:23.459Z,44.40
